Flight Briefing for CPX231

Departure Arrival
Phoenix Sky Harbor International Airport (KPHX)
Click to view FAA NOTAMS
Chicago/Rockford International Airport (KRFD)
Click to view FAA NOTAMS
Departure Time Arrival Time
N/A N/A
Aircraft Distance
B767-300BDSF 1204nm
Departure METAR Arrival METAR
KPHX 192251Z 28011G19KT 10SM SCT085 13/M07 A2997 RMK AO2 SLP144 T01281072 KRFD 192254Z 06005KT 10SM FEW160 OVC250 M03/M10 A3048 RMK AO2 SLP336 T10331100
Suggested Route
BROAK1 MAXXO ACH J231 LBL J19 ICT J26 IRK J232 MZV PLL


View recent IFR Routes data
Notes



Charts and Procedures

Charts for KPHX
No chart available
Charts for KRFD
No chart available

Ventusky Weather




{"cat":null,"equip":null,"transponder":null,"pbn":"PBN\/","maxpax":null,"oew":"0.0","mzfw":"0.0","mtow":"0.0","mlw":"0.0","maxfuel":"0.0"} DEVELOPMENTAL TEST USE ONLY